Time;durP1;ratioP1;P1;durP2;ratioP2;P2;SDS_P1;SDS_P2;PMS_P1;PMS_P2;Temp;Humidity;BMP_temperature;BMP_pressure;BME280_temperature;BME280_humidity;BME280_pressure;Samples;Min_cycle;Max_cycle;Signal;HPM_P1;HPM_P2
2022/07/27 00:01:30;;;;;;;0.30;0.20;;;19.30;99.90;;;;;;6656194;89;20214;-77
2022/07/27 00:11:30;;;;;;;0.40;0.30;;;19.20;99.90;;;;;;6661888;89;20200;-77
2022/07/27 00:21:31;;;;;;;0.60;0.30;;;19.00;99.90;;;;;;6660892;89;20428;-77
2022/07/27 00:31:32;;;;;;;0.50;0.20;;;19.00;99.90;;;;;;6657855;89;20660;-77
2022/07/27 00:41:32;;;;;;;0.50;0.25;;;18.90;99.90;;;;;;6662382;89;20222;-77
2022/07/27 00:51:33;;;;;;;0.40;0.20;;;18.80;99.90;;;;;;6659419;89;20704;-77
2022/07/27 01:01:34;;;;;;;0.37;0.20;;;18.70;99.90;;;;;;6663964;89;20246;-77
2022/07/27 01:11:35;;;;;;;1.27;0.37;;;18.60;99.90;;;;;;6659893;89;20180;-77
2022/07/27 01:21:36;;;;;;;0.68;0.30;;;18.40;99.90;;;;;;6658900;89;20207;-77
2022/07/27 01:31:37;;;;;;;0.28;0.10;;;18.30;99.90;;;;;;6664307;89;20192;-77
2022/07/27 01:41:37;;;;;;;0.60;0.25;;;18.20;99.90;;;;;;6660004;89;20266;-77
2022/07/27 01:51:38;;;;;;;0.77;0.37;;;18.10;99.90;;;;;;6659624;89;20236;-77
2022/07/27 02:01:38;;;;;;;0.40;0.20;;;17.90;99.90;;;;;;6658663;89;20210;-76
2022/07/27 02:21:58;;;;;;;0.52;0.20;;;17.60;99.90;;;;;;6658201;89;20179;-76
2022/07/27 02:31:58;;;;;;;0.35;0.20;;;17.40;99.90;;;;;;6650482;89;20647;-77
2022/07/27 02:41:59;;;;;;;0.50;0.28;;;17.20;99.90;;;;;;6653119;89;20239;-77
2022/07/27 02:52:00;;;;;;;0.20;0.10;;;17.20;99.90;;;;;;6657083;89;20252;-77
2022/07/27 03:02:00;;;;;;;0.88;0.50;;;17.10;99.90;;;;;;6656750;89;20227;-76
2022/07/27 03:12:02;;;;;;;0.57;0.25;;;17.20;99.90;;;;;;6657707;89;20257;-77
2022/07/27 03:22:02;;;;;;;0.62;0.40;;;17.10;99.90;;;;;;6652051;89;20211;-77
2022/07/27 03:32:03;;;;;;;1.00;0.30;;;17.00;99.90;;;;;;6656483;89;20212;-77
2022/07/27 03:42:04;;;;;;;0.40;0.20;;;16.90;99.90;;;;;;6662556;89;20242;-78
2022/07/27 03:52:04;;;;;;;2.13;0.30;;;16.90;99.90;;;;;;6655824;89;20421;-77
2022/07/27 04:02:05;;;;;;;0.82;0.35;;;16.90;99.90;;;;;;6665312;89;20544;-77
2022/07/27 04:12:06;;;;;;;0.95;0.30;;;16.90;99.90;;;;;;6667234;89;20251;-77
2022/07/27 04:22:06;;;;;;;1.80;0.37;;;16.70;99.90;;;;;;6671053;89;20198;-77
2022/07/27 04:32:07;;;;;;;0.60;0.30;;;16.20;99.90;;;;;;6668908;89;20195;-77
2022/07/27 04:42:08;;;;;;;1.73;0.28;;;16.10;99.90;;;;;;6677755;78;21139;-80
2022/07/27 04:52:08;;;;;;;0.60;0.30;;;16.10;99.90;;;;;;6666584;89;20279;-80
2022/07/27 05:02:09;;;;;;;0.28;0.10;;;16.20;99.90;;;;;;6673289;89;20654;-79
2022/07/27 05:12:09;;;;;;;0.57;0.30;;;16.00;99.90;;;;;;6670557;89;20326;-78
2022/07/27 05:22:11;;;;;;;0.82;0.30;;;16.10;99.90;;;;;;6665810;89;20274;-77
2022/07/27 05:32:11;;;;;;;0.95;0.45;;;16.20;99.90;;;;;;6672757;89;20191;-81
2022/07/27 05:42:12;;;;;;;0.50;0.20;;;15.60;99.90;;;;;;6671888;89;20218;-81
2022/07/27 05:52:12;;;;;;;0.70;0.30;;;15.80;99.90;;;;;;6666778;89;20387;-80
2022/07/27 06:02:13;;;;;;;0.55;0.30;;;16.40;99.90;;;;;;6670118;89;20206;-82
2022/07/27 06:12:14;;;;;;;0.62;0.30;;;16.40;99.90;;;;;;6668596;89;20218;-80
2022/07/27 06:22:14;;;;;;;0.62;0.40;;;17.00;99.90;;;;;;6662207;89;20246;-80
2022/07/27 06:32:15;;;;;;;0.88;0.35;;;17.60;99.90;;;;;;6663995;89;20231;-81
2022/07/27 06:42:15;;;;;;;0.43;0.20;;;18.20;99.90;;;;;;6665161;89;20439;-81
2022/07/27 06:52:16;;;;;;;0.52;0.35;;;18.40;99.90;;;;;;6666285;89;20220;-80
2022/07/27 07:02:17;;;;;;;0.70;0.30;;;18.80;99.90;;;;;;6669581;89;20264;-81
2022/07/27 07:12:17;;;;;;;0.47;0.20;;;19.30;99.90;;;;;;6667882;89;20208;-81
2022/07/27 07:22:18;;;;;;;0.35;0.20;;;19.90;99.90;;;;;;6677496;89;20163;-81
2022/07/27 07:32:21;;;;;;;0.65;0.20;;;20.30;99.90;;;;;;6671128;89;20191;-82
2022/07/27 07:42:22;;;;;;;0.70;0.35;;;20.90;99.20;;;;;;6676743;89;20394;-81
2022/07/27 07:52:23;;;;;;;0.60;0.22;;;21.50;97.10;;;;;;6678509;89;20223;-80
2022/07/27 08:02:27;;;;;;;0.82;0.43;;;21.80;95.70;;;;;;6679786;89;20212;-81
2022/07/27 08:12:28;;;;;;;0.62;0.30;;;22.60;94.30;;;;;;6679071;89;20287;-81
2022/07/27 08:22:28;;;;;;;0.40;0.20;;;22.70;93.40;;;;;;6666683;89;20248;-81
2022/07/27 08:32:29;;;;;;;0.40;0.20;;;22.00;92.10;;;;;;6666454;89;20502;-81
2022/07/27 08:42:31;;;;;;;0.73;0.32;;;23.00;91.80;;;;;;6663197;89;20511;-79
2022/07/27 08:52:31;;;;;;;0.57;0.32;;;23.60;90.20;;;;;;6654965;89;20234;-79
2022/07/27 09:02:33;;;;;;;0.80;0.30;;;23.90;88.50;;;;;;6655697;89;20199;-79
2022/07/27 09:12:34;;;;;;;0.50;0.30;;;24.20;84.10;;;;;;6655903;89;20214;-79
2022/07/27 09:22:54;;;;;;;0.57;0.30;;;23.80;84.80;;;;;;6651385;89;20736;-79
2022/07/27 09:33:02;;;;;;;0.40;0.20;;;23.50;85.20;;;;;;6638182;89;20656;-78
2022/07/27 09:43:09;;;;;;;0.60;0.20;;;23.00;87.00;;;;;;6640554;89;20212;-79
2022/07/27 09:53:21;;;;;;;0.50;0.20;;;23.50;86.20;;;;;;6641480;89;20262;-79
2022/07/27 10:03:22;;;;;;;0.50;0.30;;;25.00;82.10;;;;;;6643546;89;20185;-82
2022/07/27 10:13:24;;;;;;;0.70;0.40;;;25.60;80.40;;;;;;6655020;89;20192;-78
2022/07/27 10:23:26;;;;;;;0.68;0.30;;;26.60;78.00;;;;;;6655172;89;20254;-81
2022/07/27 10:33:47;;;;;;;0.80;0.30;;;24.60;80.90;;;;;;6650765;89;20214;-80
2022/07/27 10:43:50;;;;;;;0.70;0.30;;;24.30;81.00;;;;;;6659608;89;20246;-81
2022/07/27 10:53:50;;;;;;;0.40;0.30;;;24.70;80.50;;;;;;6673292;89;20198;-80
2022/07/27 11:03:52;;;;;;;0.57;0.20;;;26.70;77.30;;;;;;6670146;89;20200;-81
2022/07/27 11:13:56;;;;;;;0.50;0.22;;;25.10;77.30;;;;;;6667999;89;20284;-80
2022/07/27 11:24:12;;;;;;;0.60;0.30;;;25.20;77.50;;;;;;6672638;89;20610;-81
2022/07/27 11:34:12;;;;;;;0.60;0.37;;;26.30;76.00;;;;;;6670781;89;20510;-81
2022/07/27 11:44:18;;;;;;;0.50;0.30;;;27.10;72.30;;;;;;6679647;89;20731;-80
2022/07/27 11:54:22;;;;;;;0.50;0.30;;;26.60;72.90;;;;;;6668998;89;20199;-81
2022/07/27 12:04:24;;;;;;;0.70;0.40;;;26.20;73.50;;;;;;6676084;89;20477;-81
2022/07/27 12:14:37;;;;;;;0.68;0.30;;;27.20;71.10;;;;;;6681268;89;20313;-80
2022/07/27 12:24:40;;;;;;;0.60;0.30;;;26.30;70.40;;;;;;6665591;89;20458;-81
2022/07/27 12:34:40;;;;;;;0.77;0.40;;;26.00;70.30;;;;;;6670959;89;20193;-80
2022/07/27 12:44:43;;;;;;;0.75;0.40;;;27.80;70.00;;;;;;6668967;89;20245;-81
2022/07/27 12:54:45;;;;;;;0.85;0.40;;;28.40;68.90;;;;;;6667964;89;20706;-80
2022/07/27 13:04:47;;;;;;;0.77;0.40;;;26.40;70.90;;;;;;6674877;89;20224;-81
2022/07/27 13:14:47;;;;;;;0.67;0.40;;;26.60;69.40;;;;;;6678005;89;20759;-80
2022/07/27 13:24:48;;;;;;;1.60;0.88;;;28.30;68.40;;;;;;6670974;89;20225;-81
2022/07/27 13:34:48;;;;;;;0.90;0.60;;;27.00;69.40;;;;;;6675680;89;20744;-81
2022/07/27 13:44:49;;;;;;;1.00;0.52;;;26.00;71.00;;;;;;6663490;89;20664;-81
2022/07/27 13:54:49;;;;;;;1.75;0.62;;;25.80;68.60;;;;;;6637419;89;20800;-81
2022/07/27 14:04:50;;;;;;;1.10;0.60;;;26.30;69.00;;;;;;6636731;89;20215;-79
2022/07/27 14:14:50;;;;;;;0.95;0.60;;;26.60;69.40;;;;;;6635218;89;20218;-79
2022/07/27 14:24:51;;;;;;;1.20;0.70;;;26.70;69.40;;;;;;6635584;89;20204;-81
2022/07/27 14:34:51;;;;;;;1.00;0.68;;;27.50;68.20;;;;;;6635670;89;20286;-80
2022/07/27 14:44:52;;;;;;;1.42;0.60;;;27.70;67.80;;;;;;6644909;89;20631;-80
2022/07/27 14:54:58;;;;;;;1.00;0.57;;;26.70;67.70;;;;;;6650386;89;20208;-79
2022/07/27 15:04:58;;;;;;;0.85;0.55;;;26.10;69.00;;;;;;6636537;89;20560;-80
2022/07/27 15:14:59;;;;;;;0.93;0.60;;;27.30;67.60;;;;;;6636574;89;20192;-79
2022/07/27 15:25:00;;;;;;;0.87;0.53;;;28.00;66.70;;;;;;6637006;89;20192;-79
2022/07/27 15:35:00;;;;;;;0.90;0.57;;;28.40;65.30;;;;;;6633437;89;21524;-79
2022/07/27 15:45:01;;;;;;;0.85;0.55;;;28.60;64.40;;;;;;6639557;89;21025;-79
2022/07/27 15:55:02;;;;;;;2.05;0.60;;;27.80;66.10;;;;;;6638927;89;20556;-79
2022/07/27 16:05:03;;;;;;;0.90;0.60;;;28.20;65.50;;;;;;6640874;89;20230;-80
2022/07/27 16:15:04;;;;;;;0.80;0.57;;;27.90;64.90;;;;;;6671195;89;20653;-80
2022/07/27 16:25:05;;;;;;;1.02;0.60;;;27.60;64.90;;;;;;6676905;89;20204;-81
2022/07/27 16:35:06;;;;;;;1.10;0.70;;;27.60;64.10;;;;;;6678066;77;20239;-77
2022/07/27 16:45:08;;;;;;;1.23;0.77;;;28.20;63.90;;;;;;6670437;88;20241;-77
2022/07/27 16:55:08;;;;;;;1.20;0.60;;;27.50;65.40;;;;;;6667560;89;20217;-77
2022/07/27 17:05:09;;;;;;;1.50;0.77;;;26.80;66.20;;;;;;6657052;89;20302;-78
2022/07/27 17:15:10;;;;;;;1.58;0.70;;;26.30;66.40;;;;;;6661102;89;21156;-78
2022/07/27 17:25:10;;;;;;;1.20;0.80;;;25.60;66.70;;;;;;6661388;89;20220;-78
2022/07/27 17:35:11;;;;;;;1.30;0.70;;;24.70;67.40;;;;;;6656243;89;20718;-77
2022/07/27 17:45:11;;;;;;;1.03;0.60;;;24.60;67.20;;;;;;6659152;89;20218;-78
2022/07/27 17:55:12;;;;;;;1.00;0.60;;;24.70;67.70;;;;;;6662088;89;20195;-78
2022/07/27 18:05:13;;;;;;;1.00;0.60;;;24.70;66.80;;;;;;6666010;89;20230;-77
2022/07/27 18:25:33;;;;;;;1.80;1.10;;;23.20;69.50;;;;;;6670900;89;20216;-77
2022/07/27 18:35:34;;;;;;;1.25;0.57;;;22.50;71.10;;;;;;6671344;89;20314;-78
2022/07/27 18:45:34;;;;;;;0.80;0.40;;;22.20;71.50;;;;;;6664047;89;20210;-78
2022/07/27 18:55:35;;;;;;;0.70;0.40;;;22.10;72.10;;;;;;6664879;89;20203;-78
2022/07/27 19:05:36;;;;;;;0.90;0.47;;;21.80;72.70;;;;;;6658010;89;20215;-78
2022/07/27 19:15:37;;;;;;;1.55;0.60;;;21.60;73.40;;;;;;6660036;89;20288;-78
2022/07/27 19:25:37;;;;;;;0.73;0.30;;;21.40;73.50;;;;;;6664609;89;20361;-78
2022/07/27 19:35:38;;;;;;;0.83;0.30;;;21.20;74.80;;;;;;6655691;89;20242;-78
2022/07/27 19:45:39;;;;;;;0.50;0.30;;;20.80;75.50;;;;;;6653203;89;20514;-78
2022/07/27 19:55:39;;;;;;;0.52;0.20;;;20.60;75.80;;;;;;6662511;89;20269;-78
2022/07/27 20:05:40;;;;;;;0.70;0.32;;;20.50;76.20;;;;;;6665821;89;20184;-78
2022/07/27 20:15:40;;;;;;;0.68;0.30;;;20.20;78.50;;;;;;6663789;89;20651;-78
2022/07/27 20:25:41;;;;;;;0.80;0.30;;;20.00;79.10;;;;;;6668284;89;20205;-78
2022/07/27 20:35:42;;;;;;;0.60;0.20;;;19.90;80.20;;;;;;6663712;89;20217;-78
2022/07/27 20:45:42;;;;;;;0.50;0.30;;;19.70;81.10;;;;;;6665876;89;20208;-78
2022/07/27 20:55:44;;;;;;;1.73;0.82;;;19.50;81.60;;;;;;6664348;89;20199;-78
2022/07/27 21:05:45;;;;;;;1.45;0.65;;;19.30;82.30;;;;;;6666157;89;20206;-78
2022/07/27 21:15:45;;;;;;;0.75;0.28;;;19.00;82.80;;;;;;6665490;89;20229;-78
2022/07/27 21:25:46;;;;;;;0.35;0.20;;;18.80;84.50;;;;;;6664276;89;20234;-78
2022/07/27 21:35:46;;;;;;;0.80;0.30;;;18.80;86.40;;;;;;6667980;89;20230;-78
2022/07/27 21:45:47;;;;;;;1.05;0.40;;;18.70;85.80;;;;;;6659965;89;20222;-78
2022/07/27 21:55:47;;;;;;;0.93;0.32;;;18.40;88.10;;;;;;6667874;89;20281;-78
2022/07/27 22:05:48;;;;;;;0.98;0.32;;;18.30;88.90;;;;;;6659616;89;20696;-77
2022/07/27 22:15:48;;;;;;;0.70;0.37;;;18.00;90.20;;;;;;6661639;89;20366;-78
2022/07/27 22:25:49;;;;;;;0.50;0.20;;;17.90;91.50;;;;;;6661254;89;20289;-78
2022/07/27 22:35:49;;;;;;;3.40;0.50;;;17.60;92.50;;;;;;6663719;77;20246;-77
2022/07/27 22:45:53;;;;;;;1.05;0.37;;;17.30;93.50;;;;;;6671714;89;20215;-78
2022/07/27 22:55:54;;;;;;;1.20;0.30;;;17.30;95.30;;;;;;6681130;88;20321;-77
2022/07/27 23:05:56;;;;;;;0.62;0.32;;;17.30;96.50;;;;;;6670165;89;20203;-78
2022/07/27 23:16:17;;;;;;;0.62;0.37;;;17.40;97.30;;;;;;6674780;89;20195;-78
2022/07/27 23:26:17;;;;;;;0.80;0.35;;;17.30;98.10;;;;;;6670148;89;20217;-78
2022/07/27 23:36:19;;;;;;;1.10;0.70;;;17.10;98.50;;;;;;6679620;88;20234;-78
2022/07/27 23:46:19;;;;;;;1.05;0.22;;;17.10;99.90;;;;;;6668368;89;20241;-78
2022/07/27 23:56:20;;;;;;;1.17;0.40;;;17.00;99.60;;;;;;6669672;89;20227;-77
